sensor_id;sensor_type;location;lat;lon;timestamp;P1;durP1;ratioP1;P2;durP2;ratioP2
33266;SDS011;19638;49.080;11.896;2023-02-15T00:03:18;257.83;;;18.93;;
33266;SDS011;19638;49.080;11.896;2023-02-15T00:07:23;231.63;;;15.90;;
33266;SDS011;19638;49.080;11.896;2023-02-15T00:11:26;305.60;;;18.47;;
33266;SDS011;19638;49.080;11.896;2023-02-15T00:15:51;270.67;;;18.23;;
33266;SDS011;19638;49.080;11.896;2023-02-15T00:19:54;454.73;;;23.13;;
33266;SDS011;19638;49.080;11.896;2023-02-15T00:23:59;336.37;;;18.90;;
33266;SDS011;19638;49.080;11.896;2023-02-15T00:28:04;485.53;;;21.70;;
33266;SDS011;19638;49.080;11.896;2023-02-15T00:32:09;361.90;;;19.23;;
33266;SDS011;19638;49.080;11.896;2023-02-15T00:36:12;307.90;;;18.63;;
33266;SDS011;19638;49.080;11.896;2023-02-15T00:40:17;270.30;;;17.53;;
33266;SDS011;19638;49.080;11.896;2023-02-15T00:44:22;410.43;;;20.83;;
33266;SDS011;19638;49.080;11.896;2023-02-15T00:48:25;395.87;;;20.87;;
33266;SDS011;19638;49.080;11.896;2023-02-15T00:52:29;290.93;;;19.77;;
33266;SDS011;19638;49.080;11.896;2023-02-15T00:56:33;176.67;;;13.63;;
33266;SDS011;19638;49.080;11.896;2023-02-15T01:00:37;175.93;;;13.57;;
33266;SDS011;19638;49.080;11.896;2023-02-15T01:04:44;255.17;;;15.03;;
33266;SDS011;19638;49.080;11.896;2023-02-15T01:08:49;249.63;;;16.33;;
33266;SDS011;19638;49.080;11.896;2023-02-15T01:12:56;316.40;;;18.57;;
33266;SDS011;19638;49.080;11.896;2023-02-15T01:17:05;223.93;;;14.27;;
33266;SDS011;19638;49.080;11.896;2023-02-15T01:21:09;426.43;;;21.00;;
33266;SDS011;19638;49.080;11.896;2023-02-15T01:25:15;204.63;;;14.90;;
33266;SDS011;19638;49.080;11.896;2023-02-15T01:29:21;202.30;;;15.57;;
33266;SDS011;19638;49.080;11.896;2023-02-15T01:33:28;196.13;;;15.90;;
33266;SDS011;19638;49.080;11.896;2023-02-15T01:37:34;135.77;;;14.33;;
33266;SDS011;19638;49.080;11.896;2023-02-15T01:41:38;137.07;;;15.03;;
33266;SDS011;19638;49.080;11.896;2023-02-15T01:45:44;225.33;;;17.03;;
33266;SDS011;19638;49.080;11.896;2023-02-15T01:49:53;408.00;;;20.83;;
33266;SDS011;19638;49.080;11.896;2023-02-15T01:54:07;461.07;;;21.30;;
33266;SDS011;19638;49.080;11.896;2023-02-15T01:58:20;459.83;;;22.83;;
33266;SDS011;19638;49.080;11.896;2023-02-15T02:02:28;359.53;;;21.77;;
33266;SDS011;19638;49.080;11.896;2023-02-15T02:06:32;367.00;;;20.13;;
33266;SDS011;19638;49.080;11.896;2023-02-15T02:10:39;503.00;;;25.53;;
33266;SDS011;19638;49.080;11.896;2023-02-15T02:14:42;382.73;;;20.10;;
33266;SDS011;19638;49.080;11.896;2023-02-15T02:18:53;353.33;;;18.67;;
33266;SDS011;19638;49.080;11.896;2023-02-15T02:23:23;340.20;;;18.90;;
33266;SDS011;19638;49.080;11.896;2023-02-15T02:27:33;217.37;;;16.93;;
33266;SDS011;19638;49.080;11.896;2023-02-15T02:31:47;213.00;;;15.43;;
33266;SDS011;19638;49.080;11.896;2023-02-15T02:36:14;449.47;;;22.20;;
33266;SDS011;19638;49.080;11.896;2023-02-15T02:40:24;215.53;;;14.90;;
33266;SDS011;19638;49.080;11.896;2023-02-15T02:44:34;272.60;;;17.80;;
33266;SDS011;19638;49.080;11.896;2023-02-15T02:48:45;370.00;;;19.30;;
33266;SDS011;19638;49.080;11.896;2023-02-15T02:52:57;350.93;;;18.83;;
33266;SDS011;19638;49.080;11.896;2023-02-15T02:57:05;178.23;;;13.73;;
33266;SDS011;19638;49.080;11.896;2023-02-15T03:05:24;249.57;;;17.77;;
33266;SDS011;19638;49.080;11.896;2023-02-15T03:09:39;281.47;;;17.53;;
33266;SDS011;19638;49.080;11.896;2023-02-15T03:13:47;231.10;;;15.90;;
33266;SDS011;19638;49.080;11.896;2023-02-15T03:17:53;199.03;;;15.43;;
33266;SDS011;19638;49.080;11.896;2023-02-15T03:22:06;229.40;;;14.03;;
33266;SDS011;19638;49.080;11.896;2023-02-15T03:26:15;186.63;;;15.53;;
33266;SDS011;19638;49.080;11.896;2023-02-15T03:30:18;345.50;;;18.23;;
33266;SDS011;19638;49.080;11.896;2023-02-15T03:34:24;194.80;;;14.37;;
33266;SDS011;19638;49.080;11.896;2023-02-15T03:38:29;183.07;;;13.80;;
33266;SDS011;19638;49.080;11.896;2023-02-15T03:42:38;156.83;;;11.40;;
33266;SDS011;19638;49.080;11.896;2023-02-15T03:46:43;215.80;;;15.10;;
33266;SDS011;19638;49.080;11.896;2023-02-15T03:50:54;242.57;;;14.93;;
33266;SDS011;19638;49.080;11.896;2023-02-15T03:55:19;214.90;;;14.00;;
33266;SDS011;19638;49.080;11.896;2023-02-15T03:59:25;317.73;;;16.03;;
33266;SDS011;19638;49.080;11.896;2023-02-15T04:03:48;172.30;;;13.27;;
33266;SDS011;19638;49.080;11.896;2023-02-15T04:07:59;332.87;;;18.80;;
33266;SDS011;19638;49.080;11.896;2023-02-15T04:12:04;342.47;;;19.57;;
33266;SDS011;19638;49.080;11.896;2023-02-15T04:16:08;158.03;;;13.93;;
33266;SDS011;19638;49.080;11.896;2023-02-15T04:20:13;315.53;;;16.00;;
33266;SDS011;19638;49.080;11.896;2023-02-15T04:24:38;309.83;;;17.77;;
33266;SDS011;19638;49.080;11.896;2023-02-15T04:28:59;386.10;;;20.27;;
33266;SDS011;19638;49.080;11.896;2023-02-15T04:33:08;195.07;;;15.77;;
33266;SDS011;19638;49.080;11.896;2023-02-15T04:37:15;224.77;;;16.97;;
33266;SDS011;19638;49.080;11.896;2023-02-15T04:41:21;196.27;;;14.67;;
33266;SDS011;19638;49.080;11.896;2023-02-15T04:45:24;409.13;;;20.37;;
33266;SDS011;19638;49.080;11.896;2023-02-15T04:49:30;301.83;;;18.30;;
33266;SDS011;19638;49.080;11.896;2023-02-15T04:53:33;250.33;;;17.17;;
33266;SDS011;19638;49.080;11.896;2023-02-15T04:57:37;104.33;;;11.10;;
33266;SDS011;19638;49.080;11.896;2023-02-15T05:01:40;238.60;;;16.93;;
33266;SDS011;19638;49.080;11.896;2023-02-15T05:05:47;210.20;;;14.40;;
33266;SDS011;19638;49.080;11.896;2023-02-15T05:09:50;352.47;;;18.50;;
33266;SDS011;19638;49.080;11.896;2023-02-15T05:13:58;257.00;;;15.63;;
33266;SDS011;19638;49.080;11.896;2023-02-15T05:18:02;196.63;;;14.67;;
33266;SDS011;19638;49.080;11.896;2023-02-15T05:22:08;229.93;;;15.80;;
33266;SDS011;19638;49.080;11.896;2023-02-15T05:26:12;248.23;;;17.30;;
33266;SDS011;19638;49.080;11.896;2023-02-15T05:30:38;319.10;;;17.57;;
33266;SDS011;19638;49.080;11.896;2023-02-15T05:34:44;347.37;;;18.03;;
33266;SDS011;19638;49.080;11.896;2023-02-15T05:38:49;120.80;;;11.60;;
33266;SDS011;19638;49.080;11.896;2023-02-15T05:42:52;222.40;;;14.73;;
33266;SDS011;19638;49.080;11.896;2023-02-15T05:46:55;131.03;;;14.60;;
33266;SDS011;19638;49.080;11.896;2023-02-15T05:51:01;172.73;;;15.77;;
33266;SDS011;19638;49.080;11.896;2023-02-15T05:55:11;112.87;;;14.30;;
33266;SDS011;19638;49.080;11.896;2023-02-15T05:59:16;212.07;;;15.80;;
33266;SDS011;19638;49.080;11.896;2023-02-15T06:03:19;356.17;;;19.30;;
33266;SDS011;19638;49.080;11.896;2023-02-15T06:07:25;252.00;;;15.67;;
33266;SDS011;19638;49.080;11.896;2023-02-15T06:11:29;262.70;;;15.90;;
33266;SDS011;19638;49.080;11.896;2023-02-15T06:15:35;164.97;;;14.70;;
33266;SDS011;19638;49.080;11.896;2023-02-15T06:19:41;245.07;;;16.37;;
33266;SDS011;19638;49.080;11.896;2023-02-15T06:23:47;275.67;;;17.00;;
33266;SDS011;19638;49.080;11.896;2023-02-15T06:27:51;174.10;;;14.63;;
33266;SDS011;19638;49.080;11.896;2023-02-15T06:31:56;117.33;;;15.90;;
33266;SDS011;19638;49.080;11.896;2023-02-15T06:35:59;102.80;;;13.13;;
33266;SDS011;19638;49.080;11.896;2023-02-15T06:40:03;70.70;;;11.33;;
33266;SDS011;19638;49.080;11.896;2023-02-15T06:44:17;87.23;;;10.90;;
33266;SDS011;19638;49.080;11.896;2023-02-15T06:48:20;116.50;;;12.50;;
33266;SDS011;19638;49.080;11.896;2023-02-15T06:52:24;196.87;;;14.50;;
33266;SDS011;19638;49.080;11.896;2023-02-15T06:56:30;130.67;;;11.47;;
33266;SDS011;19638;49.080;11.896;2023-02-15T07:00:35;161.63;;;14.73;;
33266;SDS011;19638;49.080;11.896;2023-02-15T07:04:38;293.57;;;17.23;;
33266;SDS011;19638;49.080;11.896;2023-02-15T07:08:41;187.97;;;15.13;;
33266;SDS011;19638;49.080;11.896;2023-02-15T07:12:46;200.87;;;14.87;;
33266;SDS011;19638;49.080;11.896;2023-02-15T07:16:50;100.00;;;12.20;;
33266;SDS011;19638;49.080;11.896;2023-02-15T07:20:53;106.80;;;12.27;;
33266;SDS011;19638;49.080;11.896;2023-02-15T07:25:00;165.70;;;12.93;;
33266;SDS011;19638;49.080;11.896;2023-02-15T07:29:03;254.67;;;18.20;;
33266;SDS011;19638;49.080;11.896;2023-02-15T07:33:08;103.20;;;12.30;;
33266;SDS011;19638;49.080;11.896;2023-02-15T07:37:28;179.13;;;15.27;;
33266;SDS011;19638;49.080;11.896;2023-02-15T07:41:34;70.57;;;11.37;;
33266;SDS011;19638;49.080;11.896;2023-02-15T07:45:37;269.63;;;16.77;;
33266;SDS011;19638;49.080;11.896;2023-02-15T07:49:41;166.87;;;13.83;;
33266;SDS011;19638;49.080;11.896;2023-02-15T07:53:50;184.50;;;14.37;;
33266;SDS011;19638;49.080;11.896;2023-02-15T07:57:54;209.60;;;14.50;;
33266;SDS011;19638;49.080;11.896;2023-02-15T08:01:59;99.93;;;14.40;;
33266;SDS011;19638;49.080;11.896;2023-02-15T08:06:03;108.73;;;12.00;;
33266;SDS011;19638;49.080;11.896;2023-02-15T08:10:07;100.17;;;13.40;;
33266;SDS011;19638;49.080;11.896;2023-02-15T08:14:11;105.63;;;12.73;;
33266;SDS011;19638;49.080;11.896;2023-02-15T08:18:20;97.63;;;15.97;;
33266;SDS011;19638;49.080;11.896;2023-02-15T08:22:27;125.30;;;14.90;;
33266;SDS011;19638;49.080;11.896;2023-02-15T08:26:31;87.10;;;17.00;;
33266;SDS011;19638;49.080;11.896;2023-02-15T08:30:35;46.40;;;11.10;;
33266;SDS011;19638;49.080;11.896;2023-02-15T08:34:40;363.17;;;36.77;;
33266;SDS011;19638;49.080;11.896;2023-02-15T08:38:52;298.30;;;23.87;;
33266;SDS011;19638;49.080;11.896;2023-02-15T08:43:00;53.93;;;13.10;;
33266;SDS011;19638;49.080;11.896;2023-02-15T08:47:08;95.93;;;16.03;;
33266;SDS011;19638;49.080;11.896;2023-02-15T08:51:12;56.83;;;11.20;;
33266;SDS011;19638;49.080;11.896;2023-02-15T08:55:20;67.03;;;13.30;;
33266;SDS011;19638;49.080;11.896;2023-02-15T08:59:23;60.13;;;13.33;;
33266;SDS011;19638;49.080;11.896;2023-02-15T09:03:28;110.27;;;19.13;;
33266;SDS011;19638;49.080;11.896;2023-02-15T09:07:31;203.10;;;26.03;;
33266;SDS011;19638;49.080;11.896;2023-02-15T09:11:39;93.20;;;28.10;;
33266;SDS011;19638;49.080;11.896;2023-02-15T09:15:43;48.60;;;12.00;;
33266;SDS011;19638;49.080;11.896;2023-02-15T09:19:51;86.97;;;16.57;;
33266;SDS011;19638;49.080;11.896;2023-02-15T09:23:55;47.07;;;12.87;;
33266;SDS011;19638;49.080;11.896;2023-02-15T09:28:02;84.23;;;13.10;;
33266;SDS011;19638;49.080;11.896;2023-02-15T09:32:05;62.63;;;12.63;;
33266;SDS011;19638;49.080;11.896;2023-02-15T09:36:14;61.87;;;11.67;;
33266;SDS011;19638;49.080;11.896;2023-02-15T09:40:21;137.77;;;18.93;;
33266;SDS011;19638;49.080;11.896;2023-02-15T09:44:32;66.53;;;12.00;;
33266;SDS011;19638;49.080;11.896;2023-02-15T09:48:49;44.00;;;11.80;;
33266;SDS011;19638;49.080;11.896;2023-02-15T09:53:06;45.00;;;10.60;;
33266;SDS011;19638;49.080;11.896;2023-02-15T09:57:27;32.60;;;11.43;;
33266;SDS011;19638;49.080;11.896;2023-02-15T10:01:44;36.93;;;10.37;;
33266;SDS011;19638;49.080;11.896;2023-02-15T10:06:02;35.93;;;11.70;;
33266;SDS011;19638;49.080;11.896;2023-02-15T10:10:19;57.87;;;12.00;;
33266;SDS011;19638;49.080;11.896;2023-02-15T10:19:16;44.40;;;13.53;;
33266;SDS011;19638;49.080;11.896;2023-02-15T10:23:33;47.47;;;12.43;;
33266;SDS011;19638;49.080;11.896;2023-02-15T10:27:55;45.97;;;13.23;;
33266;SDS011;19638;49.080;11.896;2023-02-15T10:32:10;40.37;;;12.13;;
33266;SDS011;19638;49.080;11.896;2023-02-15T10:36:32;66.23;;;12.57;;
33266;SDS011;19638;49.080;11.896;2023-02-15T10:40:51;37.10;;;11.60;;
33266;SDS011;19638;49.080;11.896;2023-02-15T10:45:11;52.57;;;13.93;;
33266;SDS011;19638;49.080;11.896;2023-02-15T10:49:33;44.93;;;13.17;;
33266;SDS011;19638;49.080;11.896;2023-02-15T10:53:55;42.47;;;12.83;;
33266;SDS011;19638;49.080;11.896;2023-02-15T10:58:11;38.33;;;12.47;;
33266;SDS011;19638;49.080;11.896;2023-02-15T11:02:32;31.93;;;12.73;;
33266;SDS011;19638;49.080;11.896;2023-02-15T11:06:52;40.87;;;13.00;;
33266;SDS011;19638;49.080;11.896;2023-02-15T11:10:59;56.73;;;14.20;;
33266;SDS011;19638;49.080;11.896;2023-02-15T11:15:11;40.47;;;14.63;;
33266;SDS011;19638;49.080;11.896;2023-02-15T11:19:26;47.10;;;15.03;;
33266;SDS011;19638;49.080;11.896;2023-02-15T11:23:35;45.50;;;14.83;;
33266;SDS011;19638;49.080;11.896;2023-02-15T11:27:45;45.73;;;15.63;;
33266;SDS011;19638;49.080;11.896;2023-02-15T11:31:53;46.60;;;16.70;;
33266;SDS011;19638;49.080;11.896;2023-02-15T11:36:01;38.80;;;16.03;;
33266;SDS011;19638;49.080;11.896;2023-02-15T11:40:14;35.83;;;14.60;;
33266;SDS011;19638;49.080;11.896;2023-02-15T11:44:26;39.60;;;13.93;;
33266;SDS011;19638;49.080;11.896;2023-02-15T11:48:33;45.97;;;17.67;;
33266;SDS011;19638;49.080;11.896;2023-02-15T11:52:36;38.00;;;15.20;;
33266;SDS011;19638;49.080;11.896;2023-02-15T11:56:39;38.73;;;15.03;;
33266;SDS011;19638;49.080;11.896;2023-02-15T12:00:46;49.20;;;15.53;;
33266;SDS011;19638;49.080;11.896;2023-02-15T12:04:52;38.47;;;15.77;;
33266;SDS011;19638;49.080;11.896;2023-02-15T12:09:03;46.67;;;15.73;;
33266;SDS011;19638;49.080;11.896;2023-02-15T12:13:13;39.20;;;15.30;;
33266;SDS011;19638;49.080;11.896;2023-02-15T12:17:18;40.67;;;15.83;;
33266;SDS011;19638;49.080;11.896;2023-02-15T12:21:25;42.37;;;17.67;;
33266;SDS011;19638;49.080;11.896;2023-02-15T12:25:33;43.57;;;16.57;;
33266;SDS011;19638;49.080;11.896;2023-02-15T12:29:40;40.33;;;16.37;;
33266;SDS011;19638;49.080;11.896;2023-02-15T12:33:49;44.27;;;19.30;;
33266;SDS011;19638;49.080;11.896;2023-02-15T12:37:56;44.67;;;15.17;;
33266;SDS011;19638;49.080;11.896;2023-02-15T12:42:13;46.30;;;17.60;;
33266;SDS011;19638;49.080;11.896;2023-02-15T12:46:22;45.23;;;17.70;;
33266;SDS011;19638;49.080;11.896;2023-02-15T12:50:28;54.30;;;17.20;;
33266;SDS011;19638;49.080;11.896;2023-02-15T12:54:36;43.57;;;16.87;;
33266;SDS011;19638;49.080;11.896;2023-02-15T12:58:43;42.80;;;17.40;;
33266;SDS011;19638;49.080;11.896;2023-02-15T13:02:48;46.83;;;16.10;;
33266;SDS011;19638;49.080;11.896;2023-02-15T13:06:57;41.70;;;17.57;;
33266;SDS011;19638;49.080;11.896;2023-02-15T13:11:02;370.67;;;162.40;;
33266;SDS011;19638;49.080;11.896;2023-02-15T13:15:22;70.40;;;33.60;;
33266;SDS011;19638;49.080;11.896;2023-02-15T13:19:31;45.63;;;20.03;;
33266;SDS011;19638;49.080;11.896;2023-02-15T13:23:41;92.83;;;40.90;;
33266;SDS011;19638;49.080;11.896;2023-02-15T13:27:51;47.40;;;17.20;;
33266;SDS011;19638;49.080;11.896;2023-02-15T13:31:57;39.17;;;17.00;;
33266;SDS011;19638;49.080;11.896;2023-02-15T13:36:19;51.27;;;22.03;;
33266;SDS011;19638;49.080;11.896;2023-02-15T13:40:37;45.17;;;19.87;;
33266;SDS011;19638;49.080;11.896;2023-02-15T13:44:52;39.87;;;18.13;;
33266;SDS011;19638;49.080;11.896;2023-02-15T13:49:08;44.73;;;18.60;;
33266;SDS011;19638;49.080;11.896;2023-02-15T13:53:37;88.57;;;56.83;;
33266;SDS011;19638;49.080;11.896;2023-02-15T14:02:54;42.60;;;17.43;;
33266;SDS011;19638;49.080;11.896;2023-02-15T14:07:25;47.73;;;22.30;;
33266;SDS011;19638;49.080;11.896;2023-02-15T14:11:44;36.47;;;17.97;;
33266;SDS011;19638;49.080;11.896;2023-02-15T14:16:00;41.63;;;21.80;;
33266;SDS011;19638;49.080;11.896;2023-02-15T14:20:14;37.73;;;16.67;;
33266;SDS011;19638;49.080;11.896;2023-02-15T14:24:26;43.70;;;18.13;;
33266;SDS011;19638;49.080;11.896;2023-02-15T14:28:37;38.17;;;16.43;;
33266;SDS011;19638;49.080;11.896;2023-02-15T14:32:54;44.07;;;16.60;;
33266;SDS011;19638;49.080;11.896;2023-02-15T14:37:02;40.03;;;16.03;;
33266;SDS011;19638;49.080;11.896;2023-02-15T14:41:10;38.20;;;15.27;;
33266;SDS011;19638;49.080;11.896;2023-02-15T14:45:24;46.60;;;15.87;;
33266;SDS011;19638;49.080;11.896;2023-02-15T14:49:39;40.40;;;16.03;;
33266;SDS011;19638;49.080;11.896;2023-02-15T14:53:42;41.20;;;15.33;;
33266;SDS011;19638;49.080;11.896;2023-02-15T14:57:55;39.50;;;16.93;;
33266;SDS011;19638;49.080;11.896;2023-02-15T15:02:03;41.73;;;16.57;;
33266;SDS011;19638;49.080;11.896;2023-02-15T15:06:23;44.97;;;17.17;;
33266;SDS011;19638;49.080;11.896;2023-02-15T15:10:37;50.57;;;18.27;;
33266;SDS011;19638;49.080;11.896;2023-02-15T15:14:45;48.43;;;19.30;;
33266;SDS011;19638;49.080;11.896;2023-02-15T15:18:50;44.77;;;18.50;;
33266;SDS011;19638;49.080;11.896;2023-02-15T15:27:46;41.43;;;17.67;;
33266;SDS011;19638;49.080;11.896;2023-02-15T15:31:54;43.83;;;16.03;;
33266;SDS011;19638;49.080;11.896;2023-02-15T15:36:07;52.87;;;16.63;;
33266;SDS011;19638;49.080;11.896;2023-02-15T15:40:41;40.80;;;16.37;;
33266;SDS011;19638;49.080;11.896;2023-02-15T15:49:24;456.63;;;181.17;;
33266;SDS011;19638;49.080;11.896;2023-02-15T15:53:34;97.77;;;45.53;;
33266;SDS011;19638;49.080;11.896;2023-02-15T15:57:44;58.70;;;22.53;;
33266;SDS011;19638;49.080;11.896;2023-02-15T16:01:52;51.07;;;22.53;;
33266;SDS011;19638;49.080;11.896;2023-02-15T16:05:57;55.73;;;21.80;;
33266;SDS011;19638;49.080;11.896;2023-02-15T16:10:03;58.23;;;25.63;;
33266;SDS011;19638;49.080;11.896;2023-02-15T16:14:24;70.90;;;31.50;;
33266;SDS011;19638;49.080;11.896;2023-02-15T16:18:29;63.13;;;23.93;;
33266;SDS011;19638;49.080;11.896;2023-02-15T16:22:35;56.70;;;20.33;;
33266;SDS011;19638;49.080;11.896;2023-02-15T16:26:49;53.77;;;19.63;;
33266;SDS011;19638;49.080;11.896;2023-02-15T16:31:11;115.00;;;20.13;;
33266;SDS011;19638;49.080;11.896;2023-02-15T16:35:16;60.83;;;18.43;;
33266;SDS011;19638;49.080;11.896;2023-02-15T16:39:23;78.43;;;19.00;;
33266;SDS011;19638;49.080;11.896;2023-02-15T16:43:28;57.40;;;18.13;;
33266;SDS011;19638;49.080;11.896;2023-02-15T16:47:33;53.73;;;18.30;;
33266;SDS011;19638;49.080;11.896;2023-02-15T16:51:39;72.03;;;17.70;;
33266;SDS011;19638;49.080;11.896;2023-02-15T16:55:47;68.70;;;18.20;;
33266;SDS011;19638;49.080;11.896;2023-02-15T16:59:53;87.80;;;19.77;;
33266;SDS011;19638;49.080;11.896;2023-02-15T17:04:13;106.57;;;27.47;;
33266;SDS011;19638;49.080;11.896;2023-02-15T17:08:33;128.03;;;29.07;;
33266;SDS011;19638;49.080;11.896;2023-02-15T17:12:46;131.80;;;34.50;;
33266;SDS011;19638;49.080;11.896;2023-02-15T17:16:59;81.27;;;20.97;;
33266;SDS011;19638;49.080;11.896;2023-02-15T17:21:08;58.43;;;19.23;;
33266;SDS011;19638;49.080;11.896;2023-02-15T17:25:18;58.57;;;20.33;;
33266;SDS011;19638;49.080;11.896;2023-02-15T17:29:30;84.73;;;19.57;;
33266;SDS011;19638;49.080;11.896;2023-02-15T17:33:37;60.87;;;18.57;;
33266;SDS011;19638;49.080;11.896;2023-02-15T17:37:45;149.40;;;26.37;;
33266;SDS011;19638;49.080;11.896;2023-02-15T17:41:58;74.93;;;19.40;;
33266;SDS011;19638;49.080;11.896;2023-02-15T17:46:02;67.53;;;19.57;;
33266;SDS011;19638;49.080;11.896;2023-02-15T17:50:14;88.83;;;18.13;;
33266;SDS011;19638;49.080;11.896;2023-02-15T17:54:23;83.70;;;19.13;;
33266;SDS011;19638;49.080;11.896;2023-02-15T17:58:44;162.27;;;21.53;;
33266;SDS011;19638;49.080;11.896;2023-02-15T18:02:49;93.93;;;19.97;;
33266;SDS011;19638;49.080;11.896;2023-02-15T18:07:12;64.40;;;21.90;;
33266;SDS011;19638;49.080;11.896;2023-02-15T18:11:32;78.90;;;19.43;;
33266;SDS011;19638;49.080;11.896;2023-02-15T18:15:38;114.30;;;23.50;;
33266;SDS011;19638;49.080;11.896;2023-02-15T18:19:48;124.20;;;22.57;;
33266;SDS011;19638;49.080;11.896;2023-02-15T18:23:51;104.40;;;19.90;;
33266;SDS011;19638;49.080;11.896;2023-02-15T18:27:54;74.17;;;23.47;;
33266;SDS011;19638;49.080;11.896;2023-02-15T18:32:00;105.97;;;26.50;;
33266;SDS011;19638;49.080;11.896;2023-02-15T18:36:06;91.83;;;22.10;;
33266;SDS011;19638;49.080;11.896;2023-02-15T18:40:15;70.57;;;20.80;;
33266;SDS011;19638;49.080;11.896;2023-02-15T18:44:19;134.20;;;19.37;;
33266;SDS011;19638;49.080;11.896;2023-02-15T18:53:01;91.33;;;19.23;;
33266;SDS011;19638;49.080;11.896;2023-02-15T18:57:15;90.70;;;20.40;;
33266;SDS011;19638;49.080;11.896;2023-02-15T19:10:29;73.10;;;20.77;;
33266;SDS011;19638;49.080;11.896;2023-02-15T19:14:35;100.27;;;19.10;;
33266;SDS011;19638;49.080;11.896;2023-02-15T19:18:38;83.80;;;22.10;;
33266;SDS011;19638;49.080;11.896;2023-02-15T19:22:43;104.43;;;21.50;;
33266;SDS011;19638;49.080;11.896;2023-02-15T19:26:49;94.77;;;23.07;;
33266;SDS011;19638;49.080;11.896;2023-02-15T19:30:53;172.80;;;22.83;;
33266;SDS011;19638;49.080;11.896;2023-02-15T19:34:56;259.40;;;28.33;;
33266;SDS011;19638;49.080;11.896;2023-02-15T19:38:59;67.80;;;19.90;;
33266;SDS011;19638;49.080;11.896;2023-02-15T19:43:08;72.07;;;19.70;;
33266;SDS011;19638;49.080;11.896;2023-02-15T19:47:16;116.43;;;20.37;;
33266;SDS011;19638;49.080;11.896;2023-02-15T19:51:22;69.67;;;20.97;;
33266;SDS011;19638;49.080;11.896;2023-02-15T19:55:26;78.87;;;21.87;;
33266;SDS011;19638;49.080;11.896;2023-02-15T19:59:34;75.60;;;19.57;;
33266;SDS011;19638;49.080;11.896;2023-02-15T20:03:41;81.90;;;19.90;;
33266;SDS011;19638;49.080;11.896;2023-02-15T20:07:48;220.10;;;25.23;;
33266;SDS011;19638;49.080;11.896;2023-02-15T20:11:52;125.97;;;19.67;;
33266;SDS011;19638;49.080;11.896;2023-02-15T20:15:56;160.43;;;19.23;;
33266;SDS011;19638;49.080;11.896;2023-02-15T20:20:01;136.83;;;22.10;;
33266;SDS011;19638;49.080;11.896;2023-02-15T20:24:06;105.40;;;20.87;;
33266;SDS011;19638;49.080;11.896;2023-02-15T20:28:16;109.87;;;21.23;;
33266;SDS011;19638;49.080;11.896;2023-02-15T20:32:26;190.77;;;23.90;;
33266;SDS011;19638;49.080;11.896;2023-02-15T20:36:31;88.33;;;21.73;;
33266;SDS011;19638;49.080;11.896;2023-02-15T20:40:36;113.07;;;22.87;;
33266;SDS011;19638;49.080;11.896;2023-02-15T20:45:00;182.97;;;22.20;;
33266;SDS011;19638;49.080;11.896;2023-02-15T20:49:05;176.03;;;24.30;;
33266;SDS011;19638;49.080;11.896;2023-02-15T20:53:11;117.27;;;24.03;;
33266;SDS011;19638;49.080;11.896;2023-02-15T20:57:15;267.57;;;27.57;;
33266;SDS011;19638;49.080;11.896;2023-02-15T21:01:19;178.23;;;25.17;;
33266;SDS011;19638;49.080;11.896;2023-02-15T21:05:24;112.73;;;23.43;;
33266;SDS011;19638;49.080;11.896;2023-02-15T21:09:30;99.77;;;21.83;;
33266;SDS011;19638;49.080;11.896;2023-02-15T21:13:35;122.10;;;23.30;;
33266;SDS011;19638;49.080;11.896;2023-02-15T21:17:43;126.80;;;23.60;;
33266;SDS011;19638;49.080;11.896;2023-02-15T21:21:56;146.37;;;24.13;;
33266;SDS011;19638;49.080;11.896;2023-02-15T21:26:05;115.43;;;23.07;;
33266;SDS011;19638;49.080;11.896;2023-02-15T21:30:13;169.87;;;24.47;;
33266;SDS011;19638;49.080;11.896;2023-02-15T21:34:17;108.67;;;21.50;;
33266;SDS011;19638;49.080;11.896;2023-02-15T21:38:23;109.20;;;21.73;;
33266;SDS011;19638;49.080;11.896;2023-02-15T21:42:31;133.83;;;21.37;;
33266;SDS011;19638;49.080;11.896;2023-02-15T21:46:51;123.83;;;22.93;;
33266;SDS011;19638;49.080;11.896;2023-02-15T21:51:12;89.00;;;22.00;;
33266;SDS011;19638;49.080;11.896;2023-02-15T21:55:34;128.17;;;23.10;;
33266;SDS011;19638;49.080;11.896;2023-02-15T21:59:42;165.93;;;24.70;;
33266;SDS011;19638;49.080;11.896;2023-02-15T22:03:47;186.10;;;25.90;;
33266;SDS011;19638;49.080;11.896;2023-02-15T22:07:50;119.33;;;23.87;;
33266;SDS011;19638;49.080;11.896;2023-02-15T22:11:55;182.23;;;22.93;;
33266;SDS011;19638;49.080;11.896;2023-02-15T22:15:59;85.70;;;20.63;;
33266;SDS011;19638;49.080;11.896;2023-02-15T22:20:08;112.00;;;21.33;;
33266;SDS011;19638;49.080;11.896;2023-02-15T22:24:23;81.27;;;22.50;;
33266;SDS011;19638;49.080;11.896;2023-02-15T22:28:34;80.60;;;21.67;;
33266;SDS011;19638;49.080;11.896;2023-02-15T22:32:42;104.37;;;23.03;;
33266;SDS011;19638;49.080;11.896;2023-02-15T22:36:48;104.83;;;24.93;;
33266;SDS011;19638;49.080;11.896;2023-02-15T22:40:52;184.27;;;24.20;;
33266;SDS011;19638;49.080;11.896;2023-02-15T22:44:59;206.00;;;24.23;;
33266;SDS011;19638;49.080;11.896;2023-02-15T22:49:02;114.33;;;22.83;;
33266;SDS011;19638;49.080;11.896;2023-02-15T22:53:08;120.77;;;24.50;;
33266;SDS011;19638;49.080;11.896;2023-02-15T22:57:13;83.63;;;22.93;;
33266;SDS011;19638;49.080;11.896;2023-02-15T23:01:27;119.67;;;23.07;;
33266;SDS011;19638;49.080;11.896;2023-02-15T23:05:32;88.73;;;21.90;;
33266;SDS011;19638;49.080;11.896;2023-02-15T23:09:46;90.27;;;23.47;;
33266;SDS011;19638;49.080;11.896;2023-02-15T23:13:49;84.70;;;22.93;;
33266;SDS011;19638;49.080;11.896;2023-02-15T23:17:56;130.73;;;21.63;;
33266;SDS011;19638;49.080;11.896;2023-02-15T23:22:01;103.70;;;22.80;;
33266;SDS011;19638;49.080;11.896;2023-02-15T23:26:12;110.50;;;23.77;;
33266;SDS011;19638;49.080;11.896;2023-02-15T23:30:19;97.80;;;21.00;;
33266;SDS011;19638;49.080;11.896;2023-02-15T23:34:25;180.67;;;24.23;;
33266;SDS011;19638;49.080;11.896;2023-02-15T23:38:31;89.27;;;23.43;;
33266;SDS011;19638;49.080;11.896;2023-02-15T23:42:34;153.90;;;21.67;;
33266;SDS011;19638;49.080;11.896;2023-02-15T23:46:38;93.67;;;22.77;;
33266;SDS011;19638;49.080;11.896;2023-02-15T23:50:45;133.63;;;21.30;;
33266;SDS011;19638;49.080;11.896;2023-02-15T23:54:48;84.23;;;21.73;;
33266;SDS011;19638;49.080;11.896;2023-02-15T23:58:51;82.20;;;20.47;;
